Time;durP1;ratioP1;P1;durP2;ratioP2;P2;SDS_P1;SDS_P2;PMS_P1;PMS_P2;Temp;Humidity;BMP_temperature;BMP_pressure;BME280_temperature;BME280_humidity;BME280_pressure;Samples;Min_cycle;Max_cycle;Signal;HPM_P1;HPM_P2
2022/06/09 00:00:30;;;;;;;13.00;11.83;;;;;;;16.51;78.74;99827.44;3508306;80;22034;-83
2022/06/09 00:05:23;;;;;;;15.38;13.85;;;;;;;16.52;78.81;99825.20;3512824;80;20951;-83
2022/06/09 00:10:23;;;;;;;16.12;14.75;;;;;;;16.62;79.52;99829.36;3551466;79;20945;-83
2022/06/09 00:15:14;;;;;;;17.60;16.02;;;;;;;16.69;79.64;99836.20;3577703;79;21437;-83
2022/06/09 00:20:11;;;;;;;17.82;16.32;;;;;;;16.75;79.80;99842.61;3570708;79;21320;-83
2022/06/09 00:25:03;;;;;;;18.20;16.50;;;;;;;16.80;79.98;99845.61;3486083;81;20956;-83
2022/06/09 00:29:54;;;;;;;17.37;15.78;;;;;;;16.80;79.94;99842.98;3497625;79;21243;-83
2022/06/09 00:34:45;;;;;;;18.92;17.23;;;;;;;16.82;80.10;99835.47;3495565;80;21514;-82
2022/06/09 00:39:37;;;;;;;17.52;15.72;;;;;;;16.84;80.18;99848.60;3444911;82;21070;-83
2022/06/09 00:44:30;;;;;;;18.50;16.80;;;;;;;16.85;80.28;99837.22;3514501;80;21448;-83
2022/06/09 00:49:30;;;;;;;18.77;17.07;;;;;;;16.82;80.13;99838.09;3524642;80;21471;-83
2022/06/09 00:54:38;;;;;;;17.23;15.63;;;;;;;16.81;80.34;99851.25;3441203;82;21505;-83
2022/06/09 00:59:32;;;;;;;17.12;15.53;;;;;;;16.77;80.23;99853.94;3443644;80;21026;-83
2022/06/09 01:04:23;;;;;;;15.48;14.05;;;;;;;16.72;80.29;99851.00;3437883;81;21422;-83
2022/06/09 01:09:19;;;;;;;14.45;13.10;;;;;;;16.70;80.23;99856.28;3491251;79;23280;-83
2022/06/09 01:14:14;;;;;;;16.63;14.87;;;;;;;16.65;80.27;99871.30;3494737;79;21524;-83
2022/06/09 01:19:39;;;;;;;16.12;14.63;;;;;;;16.59;80.38;99871.41;3515493;80;20999;-83
2022/06/09 01:25:20;;;;;;;15.88;14.38;;;;;;;16.55;80.43;99873.69;3405983;82;21089;-83
2022/06/09 01:30:19;;;;;;;15.25;13.75;;;;;;;16.60;80.86;99870.53;3352637;83;20990;-83
2022/06/09 01:35:16;;;;;;;16.85;15.15;;;;;;;16.60;80.71;99866.59;3395994;82;21975;-83
2022/06/09 01:40:12;;;;;;;18.37;16.57;;;;;;;16.61;80.93;99873.55;3370562;82;20988;-83
2022/06/09 01:45:12;;;;;;;18.98;17.17;;;;;;;16.62;80.99;99872.66;3395270;84;21452;-83
2022/06/09 01:50:08;;;;;;;18.32;16.52;;;;;;;16.63;80.99;99865.64;3380595;84;20961;-83
2022/06/09 01:55:03;;;;;;;20.27;18.27;;;;;;;16.65;81.08;99868.67;3365836;83;20977;-83
2022/06/09 02:00:05;;;;;;;21.60;19.00;;;;;;;16.65;81.02;99867.36;3428579;81;21001;-83
2022/06/09 02:05:06;;;;;;;20.08;18.17;;;;;;;16.65;81.12;99861.22;3476067;81;20983;-83
2022/06/09 02:10:19;;;;;;;20.65;18.65;;;;;;;16.64;81.26;99852.50;3477987;81;21055;-83
2022/06/09 02:15:16;;;;;;;21.95;19.85;;;;;;;16.62;81.12;99845.56;3456035;80;20955;-83
2022/06/09 02:20:08;;;;;;;22.62;20.40;;;;;;;16.55;81.15;99836.95;3433824;80;20945;-83
2022/06/09 02:24:59;;;;;;;19.80;18.10;;;;;;;16.53;81.31;99838.75;3413655;80;21018;-83
2022/06/09 02:29:50;;;;;;;19.93;18.10;;;;;;;16.45;81.15;99838.04;3462270;81;20932;-83
2022/06/09 02:34:41;;;;;;;21.60;19.60;;;;;;;16.45;81.15;99838.04;3536992;80;21449;-82
2022/06/09 02:39:32;;;;;;;18.80;17.20;;;;;;;16.42;81.08;99842.92;3513079;80;21000;-82
2022/06/09 02:44:24;;;;;;;17.97;16.27;;;;;;;16.38;80.99;99848.67;3472326;80;20996;-83
2022/06/09 02:49:16;;;;;;;19.80;18.00;;;;;;;16.37;80.89;99843.45;3468237;80;21047;-83
2022/06/09 02:54:12;;;;;;;20.02;18.23;;;;;;;16.39;80.97;99837.27;3504842;80;21452;-83
2022/06/09 02:59:03;;;;;;;20.08;18.15;;;;;;;16.44;81.06;99841.13;3501117;80;20917;-83
2022/06/09 03:03:54;;;;;;;23.10;20.90;;;;;;;16.50;81.12;99830.94;3522948;80;21086;-83
2022/06/09 03:08:45;;;;;;;22.48;20.37;;;;;;;16.63;81.25;99824.51;3537859;80;20923;-83
2022/06/09 03:13:39;;;;;;;26.95;24.10;;;;;;;16.72;81.26;99828.27;3470811;80;21008;-82
2022/06/09 03:18:30;;;;;;;24.23;21.82;;;;;;;16.87;81.34;99824.91;3517501;80;21133;-83
2022/06/09 03:23:21;;;;;;;20.07;18.00;;;;;;;17.27;81.19;99826.58;3492894;80;20888;-83
2022/06/09 03:28:12;;;;;;;21.30;19.27;;;;;;;17.64;80.83;99826.96;3494350;80;21241;-83
2022/06/09 03:33:03;;;;;;;23.92;21.52;;;;;;;17.98;79.99;99833.98;3476977;80;21791;-83
2022/06/09 03:37:56;;;;;;;22.37;20.27;;;;;;;18.09;79.82;99828.81;3509652;80;21195;-83
2022/06/09 03:42:48;;;;;;;23.45;21.30;;;;;;;18.12;79.53;99819.98;3469089;80;21493;-83
2022/06/09 03:47:39;;;;;;;25.43;23.07;;;;;;;18.11;79.44;99823.50;3467840;80;20967;-83
2022/06/09 03:52:30;;;;;;;22.70;20.55;;;;;;;18.02;79.40;99819.83;3484782;80;20978;-83
2022/06/09 03:57:21;;;;;;;23.45;21.25;;;;;;;17.91;79.73;99820.98;3507974;80;20948;-83
2022/06/09 04:02:12;;;;;;;25.88;23.27;;;;;;;17.85;79.97;99808.02;3493357;80;22140;-83
2022/06/09 04:07:05;;;;;;;25.15;22.85;;;;;;;17.82;80.24;99804.11;3502432;80;20993;-83
2022/06/09 04:11:56;;;;;;;23.60;21.20;;;;;;;17.79;80.34;99800.24;3490722;80;21730;-83
2022/06/09 04:16:47;;;;;;;22.32;20.32;;;;;;;17.77;80.39;99802.05;3508956;80;21014;-83
2022/06/09 04:21:39;;;;;;;25.32;22.75;;;;;;;17.73;80.59;99801.73;3487267;80;20951;-83
2022/06/09 04:26:35;;;;;;;24.43;22.22;;;;;;;17.75;80.70;99802.55;3458404;80;21034;-83
2022/06/09 04:31:26;;;;;;;23.92;21.75;;;;;;;17.86;80.88;99812.34;3508868;80;20971;-83
2022/06/09 04:36:19;;;;;;;23.30;21.23;;;;;;;17.98;81.00;99801.10;3501236;80;20944;-83
2022/06/09 04:41:14;;;;;;;23.67;21.60;;;;;;;18.04;81.28;99795.66;3486294;80;20955;-83
2022/06/09 04:46:07;;;;;;;21.07;19.20;;;;;;;18.11;81.19;99786.68;3473993;80;21075;-83
2022/06/09 04:50:59;;;;;;;23.55;21.45;;;;;;;18.21;81.37;99771.05;3469858;80;21654;-83
2022/06/09 04:55:50;;;;;;;21.97;19.67;;;;;;;18.27;81.31;99756.38;3470335;80;21006;-83
2022/06/09 05:00:42;;;;;;;24.12;21.50;;;;;;;18.32;81.34;99771.19;3485832;80;20914;-83
2022/06/09 05:05:35;;;;;;;24.87;22.40;;;;;;;18.29;81.49;99782.65;3467132;80;21508;-82
2022/06/09 05:10:27;;;;;;;23.75;21.52;;;;;;;18.24;81.51;99787.18;3483440;80;21011;-83
2022/06/09 05:15:20;;;;;;;26.23;23.67;;;;;;;18.21;81.68;99788.14;3503745;80;21160;-82
2022/06/09 05:20:15;;;;;;;23.30;20.08;;;;;;;18.21;81.76;99803.08;3481083;80;20952;-83
2022/06/09 05:25:08;;;;;;;24.37;22.07;;;;;;;18.22;81.84;99804.78;3525889;80;21458;-82
2022/06/09 05:30:00;;;;;;;22.60;20.48;;;;;;;18.35;81.81;99808.80;3493154;80;20995;-82
2022/06/09 05:34:51;;;;;;;24.20;22.10;;;;;;;18.58;81.86;99810.74;3501066;80;21470;-82
2022/06/09 05:44:52;;;;;;;19.07;17.27;;;;;;;19.40;81.06;99827.45;3510869;80;20960;-83
2022/06/09 05:49:44;;;;;;;17.65;16.15;;;;;;;19.91;80.45;99806.42;3521732;80;21460;-83
2022/06/09 05:54:35;;;;;;;16.32;14.87;;;;;;;20.08;80.33;99804.01;3496553;80;20991;-83
2022/06/09 05:59:26;;;;;;;16.37;14.98;;;;;;;20.19;80.04;99775.47;3497176;80;20963;-83
2022/06/09 06:04:18;;;;;;;17.37;14.60;;;;;;;19.99;79.98;99767.42;3492567;80;20931;-83
2022/06/09 06:09:17;;;;;;;16.70;15.30;;;;;;;19.99;79.98;99767.42;3483137;80;20967;-83
2022/06/09 06:14:10;;;;;;;17.00;15.23;;;;;;;20.01;80.00;99781.41;3495350;80;20960;-82
2022/06/09 06:19:03;;;;;;;16.20;14.80;;;;;;;20.15;80.21;99793.63;3491543;80;21058;-83
2022/06/09 06:23:55;;;;;;;15.43;13.85;;;;;;;20.60;79.36;99795.89;3464859;80;20975;-83
2022/06/09 06:28:47;;;;;;;15.10;13.90;;;;;;;20.99;78.78;99804.98;3499262;80;20976;-83
2022/06/09 06:33:38;;;;;;;13.98;12.78;;;;;;;21.31;78.18;99814.23;3548561;80;20952;-83
2022/06/09 06:38:29;;;;;;;13.58;12.47;;;;;;;21.65;77.86;99807.06;3480041;80;21029;-82
2022/06/09 06:43:22;;;;;;;14.58;13.38;;;;;;;21.79;77.36;99820.17;3462400;80;21010;-82
2022/06/09 06:48:14;;;;;;;13.88;12.82;;;;;;;21.87;77.13;99831.26;3503141;80;20991;-83
2022/06/09 06:53:05;;;;;;;12.93;11.93;;;;;;;22.04;77.04;99826.56;3504398;80;21125;-83
2022/06/09 06:57:56;;;;;;;12.03;10.93;;;;;;;22.00;76.83;99839.07;3485235;80;20939;-83
2022/06/09 07:02:48;;;;;;;13.60;12.40;;;;;;;22.04;76.34;99849.91;3489437;80;20948;-82
2022/06/09 07:07:40;;;;;;;12.60;11.50;;;;;;;22.18;76.00;99856.39;3437177;80;21457;-82
2022/06/09 07:12:32;;;;;;;12.45;11.53;;;;;;;22.57;75.86;99854.19;3485453;80;21037;-82
2022/06/09 07:17:24;;;;;;;13.18;11.57;;;;;;;23.05;74.04;99848.84;3469928;80;21252;-83
2022/06/09 07:22:15;;;;;;;11.10;10.08;;;;;;;22.83;74.43;99844.55;3491387;80;21042;-82
2022/06/09 07:27:07;;;;;;;11.48;10.65;;;;;;;22.84;74.20;99837.48;3459005;80;20956;-82
2022/06/09 07:31:59;;;;;;;11.05;10.15;;;;;;;23.10;73.20;99844.19;3525845;80;20944;-83
2022/06/09 07:36:50;;;;;;;9.53;8.75;;;;;;;26.19;67.70;99839.67;3435540;80;20941;-83
2022/06/09 07:41:42;;;;;;;10.50;9.58;;;;;;;29.35;62.70;99828.02;3509861;80;21283;-84
2022/06/09 07:46:35;;;;;;;9.25;8.55;;;;;;;32.17;57.84;99811.41;3508118;79;20964;-84
2022/06/09 07:51:29;;;;;;;9.38;8.63;;;;;;;33.56;55.43;99820.45;3499937;80;20947;-84
2022/06/09 07:56:21;;;;;;;8.63;8.03;;;;;;;32.70;55.93;99817.07;3475654;79;25363;-84
2022/06/09 08:01:14;;;;;;;8.83;8.23;;;;;;;32.77;54.30;99813.34;3473158;79;20943;-84
2022/06/09 08:06:05;;;;;;;8.48;7.87;;;;;;;32.08;54.04;99804.16;3488788;79;21288;-84
2022/06/09 08:10:56;;;;;;;10.78;9.75;;;;;;;30.78;55.42;99802.95;3465226;79;21016;-84
2022/06/09 08:15:47;;;;;;;10.05;9.23;;;;;;;30.33;55.22;99803.47;3523359;79;20948;-84
2022/06/09 08:20:42;;;;;;;10.15;9.45;;;;;;;30.82;54.76;99798.65;3483686;79;20971;-85
2022/06/09 08:25:34;;;;;;;9.78;9.08;;;;;;;32.76;50.88;99801.70;3531946;79;20979;-84
2022/06/09 08:30:25;;;;;;;8.85;8.25;;;;;;;34.42;48.84;99797.43;3483272;80;21309;-85
2022/06/09 08:35:19;;;;;;;8.90;7.97;;;;;;;35.75;46.63;99804.46;3456797;80;34118;-85
2022/06/09 08:40:19;;;;;;;7.35;6.75;;;;;;;33.70;48.40;99809.25;3505612;80;21094;-85
2022/06/09 08:45:15;;;;;;;6.40;6.00;;;;;;;34.68;45.96;99810.19;3547493;80;21022;-84
2022/06/09 08:50:29;;;;;;;6.35;5.87;;;;;;;35.44;44.77;99811.66;3483430;80;20932;-84
2022/06/09 08:55:45;;;;;;;7.10;6.60;;;;;;;34.37;44.70;99805.96;3525946;80;21573;-84
2022/06/09 09:00:42;;;;;;;6.70;6.10;;;;;;;33.32;45.63;99815.03;3503517;80;20921;-84
2022/06/09 09:05:54;;;;;;;7.35;6.75;;;;;;;34.32;43.89;99811.46;3524180;80;21022;-84
2022/06/09 09:11:13;;;;;;;7.55;7.05;;;;;;;35.16;43.19;99810.36;3530960;80;20971;-84
2022/06/09 09:16:19;;;;;;;7.05;6.55;;;;;;;32.92;45.30;99817.30;3509805;80;21390;-84
2022/06/09 09:21:28;;;;;;;7.25;6.65;;;;;;;31.32;46.69;99823.16;3538545;80;21337;-84
2022/06/09 09:26:30;;;;;;;6.92;6.33;;;;;;;30.46;47.42;99823.00;3527575;80;21461;-83
2022/06/09 09:31:42;;;;;;;7.20;6.53;;;;;;;30.76;47.37;99821.01;3547738;80;22134;-84
2022/06/09 09:36:37;;;;;;;7.85;7.25;;;;;;;32.88;44.46;99813.20;3550601;80;20920;-84
2022/06/09 09:41:34;;;;;;;6.80;6.30;;;;;;;31.90;46.40;99802.06;3481708;82;20943;-84
2022/06/09 09:46:34;;;;;;;7.35;6.65;;;;;;;32.88;44.92;99806.47;3565152;80;21812;-84
2022/06/09 09:51:38;;;;;;;6.20;5.80;;;;;;;35.16;42.40;99804.13;3454909;80;20947;-84
2022/06/09 09:56:38;;;;;;;6.80;6.30;;;;;;;36.64;40.18;99800.49;3518483;80;21474;-84
2022/06/09 10:08:35;;;;;;;5.50;5.10;;;;;;;36.19;40.46;99803.02;3505058;80;20924;-84
2022/06/09 10:12:17;;;;;;;5.72;5.33;;;;;;;37.01;38.69;99800.60;3271202;84;21032;-84
2022/06/09 10:17:32;;;;;;;6.30;5.90;;;;;;;37.87;37.31;99798.39;3270799;84;21554;-85
2022/06/09 10:22:27;;;;;;;6.28;5.60;;;;;;;38.64;35.76;99782.84;3351041;84;21031;-85
2022/06/09 10:27:22;;;;;;;6.33;5.83;;;;;;;38.83;35.89;99789.17;3315067;84;21005;-85
2022/06/09 10:32:49;;;;;;;6.05;5.65;;;;;;;38.65;34.99;99790.81;3324895;84;20987;-84
2022/06/09 10:37:49;;;;;;;6.00;5.45;;;;;;;37.95;35.39;99789.72;3303009;81;21948;-84
2022/06/09 10:43:02;;;;;;;5.40;5.00;;;;;;;37.31;34.22;99784.70;3367135;83;21449;-85
2022/06/09 10:58:52;;;;;;;5.50;5.00;;;;;;;38.51;34.82;99776.09;3261733;85;21002;-85
2022/06/09 11:03:48;;;;;;;6.00;5.50;;;;;;;37.69;35.92;99787.23;3251774;85;21961;-85
2022/06/09 11:09:14;;;;;;;6.00;5.50;;;;;;;36.56;36.78;99770.68;3284994;86;20997;-84
2022/06/09 11:14:33;;;;;;;6.53;6.03;;;;;;;35.42;37.20;99772.63;3225525;86;21421;-84
2022/06/09 11:19:32;;;;;;;5.85;5.45;;;;;;;34.22;38.03;99768.88;3283629;86;21022;-85
2022/06/09 11:24:41;;;;;;;6.90;6.30;;;;;;;33.76;38.66;99759.30;3316396;80;20972;-84
2022/06/09 11:30:03;;;;;;;6.55;5.87;;;;;;;33.38;38.86;99755.69;3380318;82;21839;-84
2022/06/09 11:35:15;;;;;;;7.28;5.60;;;;;;;32.43;39.56;99760.69;3498050;80;21035;-84
2022/06/09 11:40:37;;;;;;;7.10;4.42;;;;;;;32.60;39.08;99754.30;3595147;79;20959;-84
2022/06/09 11:45:49;;;;;;;4.85;4.33;;;;;;;32.82;38.87;99739.25;3580313;79;20971;-84
2022/06/09 11:50:44;;;;;;;8.58;5.53;;;;;;;32.95;37.36;99744.35;3555420;79;20962;-84
2022/06/09 11:56:01;;;;;;;7.97;5.17;;;;;;;33.06;37.24;99736.11;3544467;79;21261;-84
2022/06/09 12:00:50;;;;;;;6.95;5.95;;;;;;;32.95;37.72;99730.89;3562658;79;20924;-84
2022/06/09 12:05:57;;;;;;;6.75;6.12;;;;;;;32.66;38.63;99718.28;3535647;79;20924;-83
2022/06/09 12:11:10;;;;;;;7.03;6.33;;;;;;;32.19;38.48;99712.63;3525424;80;20951;-84
2022/06/09 12:16:24;;;;;;;6.47;5.62;;;;;;;32.53;40.04;99714.13;3506328;80;20958;-84
2022/06/09 12:21:35;;;;;;;6.72;6.12;;;;;;;32.74;39.76;99709.49;3433221;82;20947;-84
2022/06/09 12:26:38;;;;;;;6.40;5.90;;;;;;;33.05;39.36;99703.47;3437214;82;20959;-83
2022/06/09 12:31:36;;;;;;;5.80;5.33;;;;;;;32.96;38.70;99705.65;3489293;81;21029;-84
2022/06/09 12:36:56;;;;;;;5.83;5.42;;;;;;;32.86;39.00;99707.52;3464228;81;20959;-83
2022/06/09 12:41:57;;;;;;;5.53;5.12;;;;;;;33.02;38.08;99704.25;3312643;85;21049;-84
2022/06/09 12:47:15;;;;;;;6.53;5.95;;;;;;;33.16;37.62;99706.53;3254843;85;21038;-84
2022/06/09 12:52:33;;;;;;;7.15;6.05;;;;;;;33.38;37.38;99694.56;3344871;83;20940;-83
2022/06/09 12:57:29;;;;;;;6.00;5.42;;;;;;;32.33;37.13;99702.49;3342012;85;21017;-83
2022/06/09 13:02:30;;;;;;;6.28;5.72;;;;;;;31.31;38.06;99706.82;3261556;84;21025;-83
2022/06/09 13:07:29;;;;;;;7.40;5.55;;;;;;;30.96;39.41;99708.48;3323639;84;21067;-83
2022/06/09 13:17:32;;;;;;;6.42;5.83;;;;;;;31.53;39.53;99703.66;3507146;81;20941;-83
2022/06/09 13:22:26;;;;;;;5.50;5.00;;;;;;;32.02;39.10;99703.87;3509449;81;21079;-83
2022/06/09 13:27:26;;;;;;;6.93;5.83;;;;;;;32.24;37.55;99699.62;3487367;81;20970;-83
2022/06/09 13:32:40;;;;;;;5.70;5.00;;;;;;;31.45;39.32;99697.58;3483921;81;21037;-83
2022/06/09 13:37:44;;;;;;;5.25;4.85;;;;;;;30.71;39.06;99703.83;3535004;80;22141;-83
2022/06/09 13:42:55;;;;;;;7.53;5.00;;;;;;;30.22;40.10;99715.87;3458592;80;21468;-83
2022/06/09 13:48:13;;;;;;;5.80;4.92;;;;;;;30.08;41.12;99700.05;3481737;81;20955;-83
2022/06/09 13:53:33;;;;;;;4.92;4.42;;;;;;;31.05;39.23;99688.94;3461315;80;20916;-84
2022/06/09 13:58:24;;;;;;;7.72;4.25;;;;;;;31.82;38.34;99683.65;3457065;80;21394;-83
2022/06/09 14:03:27;;;;;;;5.00;4.28;;;;;;;31.27;38.15;99691.13;3458193;80;21363;-83
2022/06/09 14:08:21;;;;;;;5.03;4.55;;;;;;;30.63;38.63;99694.71;3458339;80;21537;-83
2022/06/09 14:13:13;;;;;;;5.90;4.33;;;;;;;29.95;39.25;99687.64;3460110;80;20958;-83
2022/06/09 14:18:04;;;;;;;4.55;4.10;;;;;;;29.46;40.72;99690.19;3479357;80;21006;-83
2022/06/09 14:22:56;;;;;;;6.50;4.03;;;;;;;29.47;40.15;99677.14;3482045;81;21027;-83
2022/06/09 14:27:47;;;;;;;7.00;3.72;;;;;;;29.99;39.08;99674.38;3456458;80;21371;-83
2022/06/09 14:32:38;;;;;;;6.15;3.08;;;;;;;29.95;38.61;99690.32;3435392;80;20975;-83
2022/06/09 14:37:29;;;;;;;4.55;3.60;;;;;;;30.40;38.03;99695.62;3441430;80;21007;-83
2022/06/09 14:42:20;;;;;;;4.95;3.15;;;;;;;30.18;38.88;99699.67;3566728;80;20951;-83
2022/06/09 14:47:20;;;;;;;6.15;3.87;;;;;;;29.94;39.85;99703.83;3582183;79;20899;-83
2022/06/09 14:52:16;;;;;;;7.92;3.83;;;;;;;30.09;38.90;99696.41;3512709;80;22271;-83
2022/06/09 14:57:14;;;;;;;5.78;3.45;;;;;;;30.04;38.60;99701.63;3518962;80;20959;-83
2022/06/09 15:02:09;;;;;;;4.33;3.30;;;;;;;29.77;39.55;99707.88;3581307;79;20911;-83
2022/06/09 15:07:00;;;;;;;6.20;3.13;;;;;;;29.46;40.09;99702.23;3521940;79;20963;-82
2022/06/09 15:11:53;;;;;;;8.23;3.50;;;;;;;29.30;39.70;99709.26;3479595;79;20996;-82
2022/06/09 15:16:45;;;;;;;6.83;3.12;;;;;;;29.18;40.22;99712.38;3500745;80;21390;-82
2022/06/09 15:21:36;;;;;;;6.53;3.60;;;;;;;28.85;40.96;99719.31;3490123;80;21023;-82
2022/06/09 15:26:27;;;;;;;5.30;4.22;;;;;;;28.50;41.69;99717.89;3494972;80;20999;-82
2022/06/09 15:31:19;;;;;;;5.50;3.67;;;;;;;28.25;42.07;99724.17;3502099;80;20956;-82
2022/06/09 15:36:15;;;;;;;4.85;3.27;;;;;;;28.13;42.62;99717.43;3473640;80;20939;-82
2022/06/09 15:41:06;;;;;;;7.30;3.90;;;;;;;28.00;43.11;99721.09;3543528;80;21157;-82
2022/06/09 15:45:58;;;;;;;5.83;3.47;;;;;;;27.86;43.96;99712.69;3421193;81;20917;-82
2022/06/09 15:50:49;;;;;;;4.37;3.70;;;;;;;27.74;44.82;99713.94;3535046;81;20893;-82
2022/06/09 15:55:43;;;;;;;4.65;3.47;;;;;;;27.64;45.35;99722.70;3527618;79;20998;-82
2022/06/09 16:00:36;;;;;;;4.72;4.30;;;;;;;27.57;46.49;99738.28;3481773;79;20919;-82
2022/06/09 16:05:28;;;;;;;6.50;5.90;;;;;;;27.51;48.20;99742.23;3522191;79;21289;-82
2022/06/09 16:10:24;;;;;;;6.75;6.15;;;;;;;27.18;48.18;99746.69;3480642;79;20885;-82
2022/06/09 16:15:16;;;;;;;;;;;;;;;26.85;49.47;99750.67;3564401;79;21007;-82
2022/06/09 16:20:10;;;;;;;7.58;6.87;;;;;;;26.61;49.60;99767.33;3567047;79;20089;-82
2022/06/09 16:25:01;;;;;;;7.87;6.85;;;;;;;26.54;49.98;99759.32;3533327;79;21537;-82
2022/06/09 16:29:52;;;;;;;8.98;6.85;;;;;;;26.47;50.53;99754.01;3569683;79;21183;-82
2022/06/09 16:34:45;;;;;;;7.55;6.95;;;;;;;26.28;51.10;99766.31;3513326;79;20979;-82
2022/06/09 16:39:36;;;;;;;9.18;7.15;;;;;;;26.14;51.45;99773.83;3534036;79;20955;-82
2022/06/09 16:44:27;;;;;;;7.45;6.75;;;;;;;26.03;51.92;99790.97;3563116;78;20939;-82
2022/06/09 16:49:19;;;;;;;8.45;7.75;;;;;;;25.79;52.30;99796.83;3501684;79;20927;-82
2022/06/09 16:54:10;;;;;;;7.65;7.05;;;;;;;25.56;52.46;99807.98;3561702;79;21123;-82
2022/06/09 16:59:02;;;;;;;9.10;7.10;;;;;;;25.39;52.57;99811.17;3555024;78;20970;-82
2022/06/09 17:03:53;;;;;;;7.28;6.65;;;;;;;25.22;52.97;99813.93;3548804;79;20935;-82
2022/06/09 17:08:45;;;;;;;6.53;5.92;;;;;;;25.17;52.92;99810.23;3561248;78;20955;-82
2022/06/09 17:13:38;;;;;;;7.80;7.00;;;;;;;25.16;53.21;99807.66;3552118;79;20997;-82
2022/06/09 17:18:29;;;;;;;7.80;6.85;;;;;;;25.04;53.21;99799.91;3522075;79;20959;-82
2022/06/09 17:23:23;;;;;;;8.23;6.47;;;;;;;24.93;53.49;99801.40;3571199;79;20985;-82
2022/06/09 17:28:15;;;;;;;7.62;6.62;;;;;;;24.85;54.03;99806.77;3577651;78;21009;-82
2022/06/09 17:33:08;;;;;;;9.60;7.45;;;;;;;24.79;54.24;99813.73;3591156;79;20924;-82
2022/06/09 17:38:00;;;;;;;7.62;6.92;;;;;;;24.69;54.56;99811.61;3534807;78;20975;-82
2022/06/09 17:42:52;;;;;;;8.83;7.95;;;;;;;24.63;54.72;99823.92;3566926;78;21349;-82
2022/06/09 17:47:43;;;;;;;10.38;9.58;;;;;;;24.54;55.12;99832.41;3592269;78;21552;-81
2022/06/09 17:52:34;;;;;;;13.65;12.40;;;;;;;24.44;55.38;99836.47;3556567;78;20959;-81
2022/06/09 17:57:26;;;;;;;8.45;7.60;;;;;;;24.35;55.74;99841.81;3581696;78;21009;-81
2022/06/09 18:02:17;;;;;;;7.70;7.10;;;;;;;24.28;55.96;99839.09;3469151;78;21438;-81
2022/06/09 18:07:08;;;;;;;7.92;7.22;;;;;;;24.21;56.22;99837.23;3516700;78;21241;-81
2022/06/09 18:11:59;;;;;;;8.15;7.45;;;;;;;24.17;56.45;99842.33;3496616;78;20967;-81
2022/06/09 18:16:50;;;;;;;8.98;8.18;;;;;;;24.11;56.77;99853.26;3535234;79;20892;-81
2022/06/09 18:21:41;;;;;;;7.00;6.50;;;;;;;24.05;57.60;99865.06;3534161;79;21533;-81
2022/06/09 18:26:33;;;;;;;7.00;6.40;;;;;;;23.97;57.88;99878.75;3525111;79;21674;-81
2022/06/09 18:31:24;;;;;;;6.92;6.33;;;;;;;23.94;58.03;99886.87;3518093;79;21483;-81
2022/06/09 18:36:15;;;;;;;8.13;6.75;;;;;;;23.83;58.12;99891.88;3493064;79;20990;-81
2022/06/09 18:41:07;;;;;;;7.08;6.47;;;;;;;23.76;58.09;99914.33;3453408;81;20944;-81
2022/06/09 18:45:59;;;;;;;8.30;6.67;;;;;;;23.63;58.10;99955.66;3462730;79;21002;-81
2022/06/09 18:50:51;;;;;;;8.25;7.30;;;;;;;23.54;59.30;99956.53;3457682;79;20939;-82
2022/06/09 18:55:43;;;;;;;8.48;7.67;;;;;;;23.22;60.39;99932.41;3446445;79;21552;-83
2022/06/09 19:00:35;;;;;;;11.12;10.05;;;;;;;22.82;61.75;99915.72;3451535;81;20931;-83
2022/06/09 19:05:26;;;;;;;9.38;8.48;;;;;;;22.73;62.65;99912.18;3488525;79;20963;-83
2022/06/09 19:10:19;;;;;;;10.25;9.25;;;;;;;22.68;63.13;99907.55;3430923;81;21033;-81
2022/06/09 19:15:13;;;;;;;9.43;8.63;;;;;;;22.66;63.46;99909.42;3443446;81;20959;-82
2022/06/09 19:20:07;;;;;;;10.80;9.88;;;;;;;22.62;63.90;99906.50;3390144;81;21019;-82
2022/06/09 19:24:58;;;;;;;13.13;11.55;;;;;;;22.61;64.68;99900.82;3420310;81;20955;-82
2022/06/09 19:29:50;;;;;;;11.10;10.15;;;;;;;22.50;64.68;99895.13;3439105;80;21422;-82
2022/06/09 19:34:41;;;;;;;10.30;8.75;;;;;;;22.48;64.53;99906.27;3469308;81;20982;-83
2022/06/09 19:39:33;;;;;;;10.30;9.40;;;;;;;22.51;64.31;99914.08;3457313;80;20912;-83
2022/06/09 19:44:24;;;;;;;9.48;8.55;;;;;;;22.54;63.94;99919.25;3476376;80;21053;-83
2022/06/09 19:49:16;;;;;;;10.30;9.23;;;;;;;22.56;64.34;99935.92;3477598;80;21015;-83
2022/06/09 19:54:08;;;;;;;10.20;8.80;;;;;;;22.55;64.49;99954.06;3477317;80;21470;-83
2022/06/09 19:59:00;;;;;;;10.20;9.38;;;;;;;22.46;65.50;99997.70;3451762;80;20952;-83
2022/06/09 20:03:51;;;;;;;10.95;9.93;;;;;;;22.26;66.30;100005.16;3511058;80;20999;-84
2022/06/09 20:08:43;;;;;;;9.80;9.00;;;;;;;22.22;66.89;99996.48;3470217;80;21247;-85
2022/06/09 20:13:37;;;;;;;11.38;10.28;;;;;;;22.20;67.64;100005.44;3449207;80;21427;-85
2022/06/09 20:18:28;;;;;;;12.63;11.48;;;;;;;22.12;67.96;99991.65;3505859;80;21375;-84
2022/06/09 20:23:21;;;;;;;10.43;9.45;;;;;;;21.96;68.37;99972.44;3516207;80;20897;-86
2022/06/09 20:28:21;;;;;;;12.00;10.82;;;;;;;21.83;68.61;99972.56;3475559;80;21445;-85
2022/06/09 20:33:12;;;;;;;11.18;10.08;;;;;;;21.76;69.06;99971.09;3521181;80;21414;-85
2022/06/09 20:38:06;;;;;;;12.25;10.98;;;;;;;21.60;69.45;100014.03;3504284;80;21226;-85
2022/06/09 20:42:57;;;;;;;14.45;11.33;;;;;;;21.45;69.95;100010.66;3478518;80;21454;-84
2022/06/09 20:47:56;;;;;;;13.30;11.78;;;;;;;21.44;70.42;100047.27;3421387;82;20963;-84
2022/06/09 20:52:47;;;;;;;13.58;12.35;;;;;;;21.39;70.56;100052.75;3390071;83;21073;-84
2022/06/09 20:57:39;;;;;;;13.08;11.83;;;;;;;21.33;70.67;100074.97;3463332;81;21108;-84
2022/06/09 21:02:30;;;;;;;13.78;12.43;;;;;;;21.26;71.21;100076.12;3406312;83;20971;-84
2022/06/09 21:07:22;;;;;;;14.00;12.88;;;;;;;21.21;71.32;100072.81;3457525;81;20931;-84
2022/06/09 21:22:33;;;;;;;16.48;14.93;;;;;;;21.04;72.26;100079.17;3455929;81;21958;-83
2022/06/09 21:27:24;;;;;;;15.55;14.05;;;;;;;21.02;72.52;100086.30;3397451;81;20900;-83
2022/06/09 21:32:16;;;;;;;18.40;16.65;;;;;;;20.95;72.73;100122.17;3426699;81;20975;-83
2022/06/09 21:37:08;;;;;;;16.27;14.87;;;;;;;20.87;73.17;100148.03;3395158;83;20994;-83
2022/06/09 21:41:59;;;;;;;17.25;15.85;;;;;;;20.88;73.58;100125.95;3510891;78;20951;-83
2022/06/09 21:46:50;;;;;;;17.12;15.65;;;;;;;20.88;73.60;100125.95;3492034;80;21997;-83
2022/06/09 21:51:41;;;;;;;16.93;14.98;;;;;;;20.86;73.84;100102.69;3584422;79;20927;-83
2022/06/09 21:56:33;;;;;;;16.48;14.83;;;;;;;20.85;74.08;100112.84;3416678;80;21438;-83
2022/06/09 22:01:24;;;;;;;15.95;14.55;;;;;;;20.78;74.26;100115.30;3504692;80;21007;-83
2022/06/09 22:06:16;;;;;;;17.32;15.83;;;;;;;20.73;74.48;100126.50;3469277;79;21003;-84
2022/06/09 22:11:07;;;;;;;16.50;15.00;;;;;;;20.68;74.59;100120.05;3511507;79;21521;-83
2022/06/09 22:15:58;;;;;;;15.98;14.58;;;;;;;20.61;74.80;100122.92;3504369;80;21018;-83
2022/06/09 22:20:52;;;;;;;15.60;14.30;;;;;;;20.56;75.18;100105.44;3507825;80;20944;-83
2022/06/09 22:25:44;;;;;;;16.15;14.75;;;;;;;20.47;75.42;100096.52;3518513;80;21082;-83
2022/06/09 22:30:36;;;;;;;15.05;13.65;;;;;;;20.43;75.56;100092.26;3471002;80;21457;-83
2022/06/09 22:35:29;;;;;;;14.87;13.68;;;;;;;20.40;75.63;100086.22;3436400;80;21858;-83
2022/06/09 22:40:31;;;;;;;14.93;13.65;;;;;;;20.34;75.71;100092.11;3511637;80;20935;-83
2022/06/09 22:45:23;;;;;;;14.63;13.32;;;;;;;20.30;75.87;100080.37;3515996;80;20956;-83
2022/06/09 22:50:19;;;;;;;14.98;13.72;;;;;;;20.28;76.10;100084.84;3459153;80;20912;-83
2022/06/09 23:00:29;;;;;;;15.03;13.70;;;;;;;20.12;76.24;100095.92;3527668;80;22184;-83
2022/06/09 23:05:21;;;;;;;15.40;13.90;;;;;;;20.06;76.40;100109.29;3548842;80;21537;-83
2022/06/09 23:10:15;;;;;;;14.25;13.15;;;;;;;20.03;76.37;100102.81;3460141;80;21512;-83
2022/06/09 23:15:07;;;;;;;15.28;13.78;;;;;;;20.00;76.44;100109.50;3482976;80;20967;-83
2022/06/09 23:19:59;;;;;;;14.35;13.08;;;;;;;19.96;76.51;100115.77;3451293;80;21007;-83
2022/06/09 23:24:51;;;;;;;14.05;12.55;;;;;;;19.89;76.72;100116.44;3495985;80;22186;-83
2022/06/09 23:29:42;;;;;;;14.07;12.70;;;;;;;19.86;76.85;100107.75;3480571;80;20952;-83
2022/06/09 23:34:33;;;;;;;13.28;12.25;;;;;;;19.80;76.87;100107.02;3471594;80;20928;-83